Time;durP1;ratioP1;P1;durP2;ratioP2;P2;SDS_P1;SDS_P2;PMS_P1;PMS_P2;Temp;Humidity;BMP_temperature;BMP_pressure;BME280_temperature;BME280_humidity;BME280_pressure;Samples;Min_cycle;Max_cycle;Signal;HPM_P1;HPM_P2
2022/06/04 00:00:15;;;;;;;;;;;17.60;99.90;;;;;;5075011;28;19913;-73
2022/06/04 00:02:42;;;;;;;;;;;17.70;99.90;;;;;;5074666;28;19956;-73
2022/06/04 00:05:08;;;;;;;;;;;17.70;99.90;;;;;;5074884;28;19916;-73
2022/06/04 00:07:34;;;;;;;;;;;17.70;99.90;;;;;;5074539;28;20050;-73
2022/06/04 00:15:29;;;;;;;;;;;17.40;99.90;;;;;;5074775;28;20219;-74
2022/06/04 00:17:54;;;;;;;;;;;17.20;99.90;;;;;;5073016;28;19912;-73
2022/06/04 00:20:20;;;;;;;;;;;17.10;99.90;;;;;;5074317;28;19925;-73
2022/06/04 00:22:46;;;;;;;;;;;17.10;99.90;;;;;;5074697;28;20348;-74
2022/06/04 00:25:13;;;;;;;;;;;17.00;99.90;;;;;;5072968;28;20003;-73
2022/06/04 00:27:38;;;;;;;;;;;17.00;99.90;;;;;;5074068;28;20376;-74
2022/06/04 00:30:05;;;;;;;;;;;16.90;99.90;;;;;;5074400;28;19913;-74
2022/06/04 00:32:33;;;;;;;;;;;16.90;99.90;;;;;;5074178;28;19912;-74
2022/06/04 00:35:01;;;;;;;;;;;17.00;99.90;;;;;;5074658;28;20047;-74
2022/06/04 00:37:26;;;;;;;;;;;17.10;99.90;;;;;;5072649;28;20221;-74
2022/06/04 00:39:52;;;;;;;;;;;17.10;99.90;;;;;;5074264;28;19916;-75
2022/06/04 00:42:19;;;;;;;;;;;17.10;99.90;;;;;;5074338;28;19928;-74
2022/06/04 00:45:14;;;;;;;;;;;17.10;99.90;;;;;;5074066;28;19913;-73
2022/06/04 00:47:41;;;;;;;;;;;17.20;99.90;;;;;;5064544;28;19924;-74
2022/06/04 00:50:08;;;;;;;;;;;17.20;99.90;;;;;;5074216;28;20050;-74
2022/06/04 00:52:34;;;;;;;;;;;17.20;99.90;;;;;;5073914;28;19923;-74
2022/06/04 00:55:00;;;;;;;;;;;17.10;99.90;;;;;;5073766;28;19908;-74
2022/06/04 00:57:37;;;;;;;;;;;17.20;99.90;;;;;;5073772;28;19920;-74
2022/06/04 01:00:17;;;;;;;;;;;17.20;99.90;;;;;;5073277;28;19986;-74
2022/06/04 01:03:00;;;;;;;;;;;17.20;99.90;;;;;;5073749;28;19917;-74
2022/06/04 01:05:26;;;;;;;;;;;17.20;99.90;;;;;;5073978;28;19952;-73
2022/06/04 01:08:09;;;;;;;;;;;17.20;99.90;;;;;;5073557;28;19951;-74
2022/06/04 01:10:39;;;;;;;;;;;17.20;99.90;;;;;;5072524;28;19908;-74
2022/06/04 01:13:17;;;;;;;;;;;17.10;99.90;;;;;;5073571;28;19988;-74
2022/06/04 01:15:42;;;;;;;;;;;17.10;99.90;;;;;;5073913;28;19947;-74
2022/06/04 01:18:12;;;;;;;;;;;17.10;99.90;;;;;;5073573;28;19947;-74
2022/06/04 01:20:48;;;;;;;;;;;17.00;99.90;;;;;;5073692;28;19935;-74
2022/06/04 01:23:30;;;;;;;;;;;17.00;99.90;;;;;;5073270;28;20007;-74
2022/06/04 01:25:59;;;;;;;;;;;17.00;99.90;;;;;;5073646;28;19916;-74
2022/06/04 01:28:26;;;;;;;;;;;17.10;99.90;;;;;;5073217;28;19913;-74
2022/06/04 01:30:54;;;;;;;;;;;17.10;99.90;;;;;;5071986;28;19912;-73
2022/06/04 01:33:19;;;;;;;;;;;17.10;99.90;;;;;;5074525;28;19917;-73
2022/06/04 01:35:56;;;;;;;;;;;17.20;99.90;;;;;;5080996;28;19965;-73
2022/06/04 01:38:24;;;;;;;;;;;17.20;99.90;;;;;;5093161;28;19912;-73
2022/06/04 01:41:05;;;;;;;;;;;17.30;99.90;;;;;;5093573;28;19912;-73
2022/06/04 01:43:43;;;;;;;;;;;17.30;99.90;;;;;;5093198;28;19912;-73
2022/06/04 01:46:12;;;;;;;;;;;17.30;99.90;;;;;;5093419;28;20011;-73
2022/06/04 01:48:40;;;;;;;;;;;17.30;99.90;;;;;;5092916;28;19942;-73
2022/06/04 01:51:06;;;;;;;;;;;17.40;99.90;;;;;;5093481;28;20011;-73
2022/06/04 01:53:34;;;;;;;;;;;17.40;99.90;;;;;;5092853;28;19918;-73
2022/06/04 01:56:03;;;;;;;;;;;17.30;99.90;;;;;;5093215;28;19919;-73
2022/06/04 01:58:31;;;;;;;;;;;17.30;99.90;;;;;;5092786;28;20019;-73
2022/06/04 02:00:58;;;;;;;;;;;17.40;99.90;;;;;;5093253;28;20417;-74
2022/06/04 02:03:29;;;;;;;;;;;17.40;99.90;;;;;;5092838;28;19921;-74
2022/06/04 02:06:07;;;;;;;;;;;17.40;99.90;;;;;;5093336;28;20364;-73
2022/06/04 02:08:37;;;;;;;;;;;17.40;99.90;;;;;;5092513;28;20006;-73
2022/06/04 02:11:05;;;;;;;;;;;17.30;99.90;;;;;;5093091;28;19912;-73
2022/06/04 02:13:30;;;;;;;;;;;17.20;99.90;;;;;;5091531;28;19939;-74
2022/06/04 02:15:59;;;;;;;;;;;17.20;99.90;;;;;;5092520;28;19912;-74
2022/06/04 02:18:25;;;;;;;;;;;17.20;99.90;;;;;;5092386;28;19923;-73
2022/06/04 02:20:51;;;;;;;;;;;17.20;99.90;;;;;;5092889;28;19916;-73
2022/06/04 02:23:16;;;;;;;;;;;17.30;99.90;;;;;;5092256;28;19928;-73
2022/06/04 02:25:42;;;;;;;;;;;17.30;99.90;;;;;;5091043;28;20006;-73
2022/06/04 02:28:08;;;;;;;;;;;17.20;99.90;;;;;;5092246;28;19920;-73
2022/06/04 02:30:56;;;;;;;;;;;17.20;99.90;;;;;;5090908;28;20001;-74
2022/06/04 02:33:22;;;;;;;;;;;17.20;99.90;;;;;;5083849;28;19916;-74
2022/06/04 02:35:56;;;;;;;;;;;17.20;99.90;;;;;;5092727;28;20015;-73
2022/06/04 02:38:24;;;;;;;;;;;17.20;99.90;;;;;;5092041;28;19919;-73
2022/06/04 02:40:49;;;;;;;;;;;17.20;99.90;;;;;;5092425;28;20356;-74
2022/06/04 02:43:20;;;;;;;;;;;17.20;99.90;;;;;;5092098;28;19960;-73
2022/06/04 02:46:04;;;;;;;;;;;17.30;99.90;;;;;;5090774;28;20279;-73
2022/06/04 02:48:38;;;;;;;;;;;17.20;99.90;;;;;;5091878;28;20443;-73
2022/06/04 02:51:30;;;;;;;;;;;17.10;99.90;;;;;;5092443;28;19916;-73
2022/06/04 02:53:56;;;;;;;;;;;17.10;99.90;;;;;;5067941;28;19919;-73
2022/06/04 02:56:28;;;;;;;;;;;17.10;99.90;;;;;;5091750;28;19964;-74
2022/06/04 02:58:56;;;;;;;;;;;17.00;99.90;;;;;;5091701;28;19917;-73
2022/06/04 03:01:23;;;;;;;;;;;17.10;99.90;;;;;;5092286;28;20011;-73
2022/06/04 03:03:49;;;;;;;;;;;17.30;99.90;;;;;;5091837;28;19916;-73
2022/06/04 03:06:23;;;;;;;;;;;17.20;99.90;;;;;;5092026;28;20248;-74
2022/06/04 03:08:49;;;;;;;;;;;17.20;99.90;;;;;;5092144;28;20045;-74
2022/06/04 03:11:14;;;;;;;;;;;17.20;99.90;;;;;;5092077;28;19916;-73
2022/06/04 03:13:40;;;;;;;;;;;17.20;99.90;;;;;;5091824;28;19916;-73
2022/06/04 03:16:06;;;;;;;;;;;16.30;99.90;;;;;;5090408;28;19912;-73
2022/06/04 03:18:31;;;;;;;;;;;17.10;99.90;;;;;;5091417;28;20014;-73
2022/06/04 03:20:57;;;;;;;;;;;17.00;99.90;;;;;;5092026;28;20336;-72
2022/06/04 03:23:23;;;;;;;;;;;17.00;99.90;;;;;;5091158;28;19924;-73
2022/06/04 03:25:48;;;;;;;;;;;17.10;99.90;;;;;;5091412;28;20355;-74
2022/06/04 03:28:14;;;;;;;;;;;17.10;99.90;;;;;;5091535;28;19920;-73
2022/06/04 03:30:39;;;;;;;;;;;17.10;99.90;;;;;;5091827;28;20438;-74
2022/06/04 03:33:05;;;;;;;;;;;17.20;99.90;;;;;;5091522;28;20227;-73
2022/06/04 03:35:31;;;;;;;;;;;17.10;99.90;;;;;;5092011;28;19919;-73
2022/06/04 03:37:56;;;;;;;;;;;17.10;99.90;;;;;;5091513;28;19912;-73
2022/06/04 03:40:22;;;;;;;;;;;17.10;99.90;;;;;;5091718;28;19916;-73
2022/06/04 03:42:47;;;;;;;;;;;17.10;99.90;;;;;;5091398;28;19942;-73
2022/06/04 03:45:13;;;;;;;;;;;17.10;99.90;;;;;;5089928;28;19965;-73
2022/06/04 03:47:40;;;;;;;;;;;17.20;99.90;;;;;;5091223;28;20268;-73
2022/06/04 03:50:15;;;;;;;;;;;17.20;99.90;;;;;;5091508;28;19974;-73
2022/06/04 03:52:42;;;;;;;;;;;17.20;99.90;;;;;;5091540;28;19912;-73
2022/06/04 03:55:08;;;;;;;;;;;17.20;99.90;;;;;;5091079;28;19983;-73
2022/06/04 03:57:41;;;;;;;;;;;17.20;99.90;;;;;;5091185;28;20403;-73
2022/06/04 04:00:19;;;;;;;;;;;17.20;99.90;;;;;;5091224;28;19916;-73
2022/06/04 04:02:47;;;;;;;;;;;17.20;99.90;;;;;;5091048;28;20384;-72
2022/06/04 04:05:15;;;;;;;;;;;17.20;99.90;;;;;;5091311;28;19912;-74
2022/06/04 04:07:43;;;;;;;;;;;17.10;99.90;;;;;;5091077;28;19969;-73
2022/06/04 04:10:09;;;;;;;;;;;17.10;99.90;;;;;;5091085;28;19951;-73
2022/06/04 04:12:35;;;;;;;;;;;17.10;99.90;;;;;;5091093;28;20017;-73
2022/06/04 04:15:00;;;;;;;;;;;17.20;99.90;;;;;;5091135;28;19947;-74
2022/06/04 04:17:26;;;;;;;;;;;17.20;99.90;;;;;;5089713;28;20021;-73
2022/06/04 04:19:52;;;;;;;;;;;17.30;99.90;;;;;;5091168;28;19912;-73
2022/06/04 04:22:18;;;;;;;;;;;17.30;99.90;;;;;;5089570;28;20424;-73
2022/06/04 04:24:44;;;;;;;;;;;17.30;99.90;;;;;;5090943;28;19956;-74
2022/06/04 04:27:11;;;;;;;;;;;17.30;99.90;;;;;;5090810;28;19955;-73
2022/06/04 04:29:37;;;;;;;;;;;17.40;99.90;;;;;;5090984;28;19912;-73
2022/06/04 04:32:03;;;;;;;;;;;17.40;99.90;;;;;;5091407;28;20292;-74
2022/06/04 04:34:28;;;;;;;;;;;17.40;99.90;;;;;;5090876;28;19912;-74
2022/06/04 04:36:54;;;;;;;;;;;17.30;99.90;;;;;;5093642;28;19919;-74
2022/06/04 04:39:19;;;;;;;;;;;17.30;99.90;;;;;;5094527;28;19912;-74
2022/06/04 04:41:45;;;;;;;;;;;17.40;99.90;;;;;;5094490;28;19912;-74
2022/06/04 04:44:10;;;;;;;;;;;17.40;99.90;;;;;;5094332;28;20393;-73
2022/06/04 04:46:36;;;;;;;;;;;17.50;99.90;;;;;;5094386;28;19920;-74
2022/06/04 04:49:01;;;;;;;;;;;17.60;99.90;;;;;;5094318;28;20360;-74
2022/06/04 04:51:28;;;;;;;;;;;17.60;99.90;;;;;;5094901;28;19923;-74
2022/06/04 04:53:54;;;;;;;;;;;17.60;99.90;;;;;;5093073;28;19912;-74
2022/06/04 04:56:21;;;;;;;;;;;17.70;99.90;;;;;;5094560;28;19912;-74
2022/06/04 04:58:46;;;;;;;;;;;17.60;99.90;;;;;;5094325;28;20007;-74
2022/06/04 05:01:15;;;;;;;;;;;17.70;99.90;;;;;;5094376;28;20020;-74
2022/06/04 05:03:44;;;;;;;;;;;17.70;99.90;;;;;;5094030;28;19919;-74
2022/06/04 05:06:11;;;;;;;;;;;17.80;99.90;;;;;;5093856;28;19920;-74
2022/06/04 05:08:36;;;;;;;;;;;17.90;99.90;;;;;;5093991;28;20003;-74
2022/06/04 05:11:09;;;;;;;;;;;18.00;99.90;;;;;;5092594;28;19993;-74
2022/06/04 05:13:35;;;;;;;;;;;18.10;99.90;;;;;;5093968;28;20346;-74
2022/06/04 05:16:00;;;;;;;;;;;18.20;99.90;;;;;;5094245;28;19918;-74
2022/06/04 05:18:26;;;;;;;;;;;18.30;99.90;;;;;;5094327;28;19923;-73
2022/06/04 05:20:51;;;;;;;;;;;18.30;99.90;;;;;;5094031;28;20299;-74
2022/06/04 05:23:17;;;;;;;;;;;18.50;99.90;;;;;;5093536;28;19927;-73
2022/06/04 05:25:44;;;;;;;;;;;18.50;99.90;;;;;;5092140;28;19920;-74
2022/06/04 05:28:09;;;;;;;;;;;18.60;99.90;;;;;;5093587;28;20007;-74
2022/06/04 05:30:35;;;;;;;;;;;19.40;99.90;;;;;;5092215;28;20342;-74
2022/06/04 05:33:01;;;;;;;;;;;18.80;99.90;;;;;;5093738;28;19934;-74
2022/06/04 05:35:26;;;;;;;;;;;18.90;99.90;;;;;;5093283;28;20015;-75
2022/06/04 05:37:52;;;;;;;;;;;19.10;99.90;;;;;;5093643;28;19912;-74
2022/06/04 05:40:17;;;;;;;;;;;19.20;99.90;;;;;;5093675;28;19912;-74
2022/06/04 05:42:43;;;;;;;;;;;19.20;99.90;;;;;;5093312;28;19923;-74
2022/06/04 05:45:08;;;;;;;;;;;19.30;99.90;;;;;;5093504;28;20306;-74
2022/06/04 05:47:34;;;;;;;;;;;19.40;99.90;;;;;;5093141;28;19916;-75
2022/06/04 05:49:59;;;;;;;;;;;19.40;99.90;;;;;;5091915;28;19912;-74
2022/06/04 05:52:25;;;;;;;;;;;19.50;99.90;;;;;;5093102;28;19923;-74
2022/06/04 05:54:50;;;;;;;;;;;19.50;99.90;;;;;;5093079;28;20391;-74
2022/06/04 05:57:16;;;;;;;;;;;19.60;99.90;;;;;;5091602;28;19923;-74
2022/06/04 05:59:41;;;;;;;;;;;19.60;99.90;;;;;;5092889;28;19916;-74
2022/06/04 06:02:07;;;;;;;;;;;19.70;99.90;;;;;;5092878;28;19938;-73
2022/06/04 06:04:32;;;;;;;;;;;19.60;99.90;;;;;;5092756;28;19916;-74
2022/06/04 06:06:59;;;;;;;;;;;19.70;99.90;;;;;;5091272;28;19927;-74
2022/06/04 06:09:26;;;;;;;;;;;19.90;99.90;;;;;;5092810;28;20037;-74
2022/06/04 06:11:52;;;;;;;;;;;20.00;99.90;;;;;;5093045;28;19916;-74
2022/06/04 06:14:18;;;;;;;;;;;20.00;99.90;;;;;;5092655;28;20276;-74
2022/06/04 06:16:45;;;;;;;;;;;20.00;99.90;;;;;;5091048;28;19919;-74
2022/06/04 06:19:12;;;;;;;;;;;20.10;99.90;;;;;;5092501;28;19915;-74
2022/06/04 06:21:37;;;;;;;;;;;20.10;99.90;;;;;;5092546;28;19912;-75
2022/06/04 06:24:04;;;;;;;;;;;20.30;99.90;;;;;;5092153;28;19930;-74
2022/06/04 06:26:31;;;;;;;;;;;20.40;99.90;;;;;;5092715;28;20314;-74
2022/06/04 06:28:59;;;;;;;;;;;20.50;99.90;;;;;;5092215;28;19912;-74
2022/06/04 06:31:26;;;;;;;;;;;20.40;99.90;;;;;;5092740;28;20401;-74
2022/06/04 06:33:52;;;;;;;;;;;20.50;99.90;;;;;;5092259;28;19916;-74
2022/06/04 06:36:18;;;;;;;;;;;20.60;99.40;;;;;;5092083;28;20420;-74
2022/06/04 06:38:45;;;;;;;;;;;20.70;99.90;;;;;;5090927;28;20441;-73
2022/06/04 06:41:12;;;;;;;;;;;20.80;99.80;;;;;;5092512;28;19966;-73
2022/06/04 06:43:47;;;;;;;;;;;20.90;97.50;;;;;;5092209;28;19916;-73
2022/06/04 06:46:20;;;;;;;;;;;21.00;98.80;;;;;;5092654;28;19912;-74
2022/06/04 06:48:47;;;;;;;;;;;21.10;97.00;;;;;;5091983;28;19920;-73
2022/06/04 06:51:12;;;;;;;;;;;21.20;96.50;;;;;;5092361;28;19908;-74
2022/06/04 06:53:38;;;;;;;;;;;21.10;96.00;;;;;;5091960;28;19920;-74
2022/06/04 06:56:13;;;;;;;;;;;21.20;95.80;;;;;;5092255;28;20407;-74
2022/06/04 06:58:39;;;;;;;;;;;21.20;96.20;;;;;;5089930;28;20280;-74
2022/06/04 07:01:06;;;;;;;;;;;21.50;97.00;;;;;;5090649;28;19908;-74
2022/06/04 07:03:31;;;;;;;;;;;21.60;97.10;;;;;;5091613;28;19985;-74
2022/06/04 07:05:57;;;;;;;;;;;21.70;96.10;;;;;;5092218;28;20319;-74
2022/06/04 07:08:23;;;;;;;;;;;21.80;96.30;;;;;;5091664;28;20410;-74
2022/06/04 07:10:49;;;;;;;;;;;22.00;97.10;;;;;;5092177;28;19912;-74
2022/06/04 07:13:14;;;;;;;;;;;22.10;98.40;;;;;;5091682;28;19916;-74
2022/06/04 07:15:41;;;;;;;;;;;22.20;97.70;;;;;;5091602;28;19915;-75
2022/06/04 07:18:06;;;;;;;;;;;22.30;95.90;;;;;;5091971;28;19916;-74
2022/06/04 07:20:32;;;;;;;;;;;22.20;95.50;;;;;;5090301;28;19931;-74
2022/06/04 07:22:57;;;;;;;;;;;22.40;95.50;;;;;;5091234;28;19916;-74
2022/06/04 07:25:23;;;;;;;;;;;22.40;95.00;;;;;;5091528;28;20351;-74
2022/06/04 07:27:48;;;;;;;;;;;22.50;95.90;;;;;;5091602;28;20014;-74
2022/06/04 07:30:14;;;;;;;;;;;22.50;95.40;;;;;;5091683;28;19916;-74
2022/06/04 07:32:41;;;;;;;;;;;22.50;95.10;;;;;;5091285;28;20606;-74
2022/06/04 07:35:06;;;;;;;;;;;22.20;95.10;;;;;;5091669;28;20368;-74
2022/06/04 07:37:32;;;;;;;;;;;22.10;95.60;;;;;;5091313;28;19920;-73
2022/06/04 07:39:57;;;;;;;;;;;22.00;94.30;;;;;;5091507;28;19923;-73
2022/06/04 07:42:23;;;;;;;;;;;21.70;93.90;;;;;;5091146;28;20249;-74
2022/06/04 07:44:48;;;;;;;;;;;21.60;94.40;;;;;;5091073;28;19920;-73
2022/06/04 07:47:14;;;;;;;;;;;21.60;94.70;;;;;;5091104;28;19943;-73
2022/06/04 07:49:39;;;;;;;;;;;21.50;94.60;;;;;;5091254;28;20353;-73
2022/06/04 07:52:05;;;;;;;;;;;21.70;93.60;;;;;;5091278;28;19912;-73
2022/06/04 07:54:31;;;;;;;;;;;21.90;94.00;;;;;;5091094;28;20292;-73
2022/06/04 07:56:56;;;;;;;;;;;22.20;94.40;;;;;;5091164;28;19942;-74
2022/06/04 07:59:23;;;;;;;;;;;22.60;94.40;;;;;;5090991;28;19951;-74
2022/06/04 08:01:48;;;;;;;;;;;22.90;93.30;;;;;;5091133;28;20354;-74
2022/06/04 08:04:14;;;;;;;;;;;23.10;92.60;;;;;;5091124;28;19995;-74
2022/06/04 08:06:40;;;;;;;;;;;23.30;92.40;;;;;;5091398;28;19956;-74
2022/06/04 08:09:06;;;;;;;;;;;23.60;91.90;;;;;;5091001;28;19958;-73
2022/06/04 08:11:31;;;;;;;;;;;23.60;91.40;;;;;;5093427;28;20283;-75
2022/06/04 08:14:17;;;;;;;;;;;23.80;91.20;;;;;;5095007;28;20003;-74
2022/06/04 08:16:48;;;;;;;;;;;24.00;91.40;;;;;;5094712;28;19916;-74
2022/06/04 08:19:13;;;;;;;;;;;24.20;89.90;;;;;;5094895;28;19915;-74
2022/06/04 08:21:40;;;;;;;;;;;24.20;87.60;;;;;;5094834;28;19916;-74
2022/06/04 08:24:06;;;;;;;;;;;24.10;88.10;;;;;;5094824;28;19924;-73
2022/06/04 08:26:31;;;;;;;;;;;24.00;87.40;;;;;;5094499;28;19966;-74
2022/06/04 08:28:57;;;;;;;;;;;24.20;87.50;;;;;;5094508;28;19912;-75
2022/06/04 08:31:23;;;;;;;;;;;24.40;86.90;;;;;;5095136;28;19912;-74
2022/06/04 08:33:49;;;;;;;;;;;24.70;87.50;;;;;;5094736;28;19920;-74
2022/06/04 08:36:16;;;;;;;;;;;25.10;87.50;;;;;;5095032;28;19913;-74
2022/06/04 08:38:42;;;;;;;;;;;25.40;85.90;;;;;;5094520;28;19924;-74
2022/06/04 08:41:17;;;;;;;;;;;25.60;84.10;;;;;;5094830;28;19973;-73
2022/06/04 08:43:53;;;;;;;;;;;25.60;84.10;;;;;;5094394;28;19912;-74
2022/06/04 08:46:18;;;;;;;;;;;25.60;83.20;;;;;;5094730;28;20432;-74
2022/06/04 08:48:45;;;;;;;;;;;25.60;83.40;;;;;;5092843;28;20169;-74
2022/06/04 08:51:22;;;;;;;;;;;25.40;82.00;;;;;;5094591;28;20386;-73
2022/06/04 08:53:50;;;;;;;;;;;25.40;81.90;;;;;;5094160;28;19916;-74
2022/06/04 08:59:11;;;;;;;;;;;25.90;82.20;;;;;;5093996;28;19950;-74
2022/06/04 09:01:41;;;;;;;;;;;26.20;81.00;;;;;;5094189;28;19939;-74
2022/06/04 09:04:26;;;;;;;;;;;26.20;79.30;;;;;;5093773;28;19908;-74
2022/06/04 09:06:55;;;;;;;;;;;26.30;79.50;;;;;;5094186;28;20364;-74
2022/06/04 09:09:24;;;;;;;;;;;26.70;79.20;;;;;;5093915;28;19908;-74
2022/06/04 09:11:54;;;;;;;;;;;27.00;77.60;;;;;;5093557;28;20004;-74
2022/06/04 09:14:38;;;;;;;;;;;26.90;77.00;;;;;;5093893;28;20064;-74
2022/06/04 09:17:06;;;;;;;;;;;26.80;77.00;;;;;;5093842;28;19943;-74
2022/06/04 09:19:34;;;;;;;;;;;26.90;76.80;;;;;;5093916;28;19912;-74
2022/06/04 09:22:00;;;;;;;;;;;27.00;76.50;;;;;;5093240;28;19916;-74
2022/06/04 09:24:25;;;;;;;;;;;27.10;76.20;;;;;;5093430;28;20138;-74
2022/06/04 09:26:55;;;;;;;;;;;27.00;75.80;;;;;;5093462;28;20014;-74
2022/06/04 09:29:24;;;;;;;;;;;27.20;75.00;;;;;;5093537;28;19922;-73
2022/06/04 09:32:08;;;;;;;;;;;27.50;74.60;;;;;;5091991;28;19916;-74
2022/06/04 09:34:39;;;;;;;;;;;27.40;73.90;;;;;;5093174;28;19908;-74
2022/06/04 09:37:05;;;;;;;;;;;27.10;73.20;;;;;;5093083;28;19916;-74
2022/06/04 09:39:32;;;;;;;;;;;26.90;73.90;;;;;;5093003;28;19912;-74
2022/06/04 09:42:07;;;;;;;;;;;27.10;75.30;;;;;;5092026;28;20294;-74
2022/06/04 09:44:36;;;;;;;;;;;27.20;74.70;;;;;;5093459;28;20346;-75
2022/06/04 09:47:04;;;;;;;;;;;27.50;73.30;;;;;;5093179;28;20017;-74
2022/06/04 09:49:42;;;;;;;;;;;27.70;73.70;;;;;;5092080;28;19947;-74
2022/06/04 09:52:13;;;;;;;;;;;27.90;72.70;;;;;;5093108;28;20272;-74
2022/06/04 09:54:42;;;;;;;;;;;27.80;71.50;;;;;;5093048;28;19935;-74
2022/06/04 09:57:23;;;;;;;;;;;27.30;71.30;;;;;;5093464;28;20420;-74
2022/06/04 09:59:53;;;;;;;;;;;27.00;72.50;;;;;;5092942;28;20410;-74
2022/06/04 10:02:19;;;;;;;;;;;27.00;74.70;;;;;;5093082;28;20372;-75
2022/06/04 10:04:47;;;;;;;;;;;27.30;73.50;;;;;;5093147;28;19960;-74
2022/06/04 10:07:14;;;;;;;;;;;27.80;72.60;;;;;;5092918;28;19920;-75
2022/06/04 10:09:56;;;;;;;;;;;28.10;71.50;;;;;;5092584;28;20311;-75
2022/06/04 10:15:26;;;;;;;;;;;28.40;70.60;;;;;;5092883;28;19950;-75
2022/06/04 10:18:05;;;;;;;;;;;28.60;70.20;;;;;;5092522;28;20249;-75
2022/06/04 10:20:31;;;;;;;;;;;29.00;70.20;;;;;;5092627;28;20003;-75
2022/06/04 10:22:57;;;;;;;;;;;29.30;69.10;;;;;;5092465;28;19962;-75
2022/06/04 10:25:42;;;;;;;;;;;29.40;67.40;;;;;;5090977;28;19916;-75
2022/06/04 10:28:14;;;;;;;;;;;29.30;67.30;;;;;;5081719;28;19969;-75
2022/06/04 10:30:54;;;;;;;;;;;29.40;68.00;;;;;;5092651;28;19915;-75
2022/06/04 10:33:34;;;;;;;;;;;29.40;67.40;;;;;;5089831;28;20325;-75
2022/06/04 10:36:26;;;;;;;;;;;29.60;67.40;;;;;;5092667;28;19922;-75
2022/06/04 10:38:51;;;;;;;;;;;29.70;66.40;;;;;;5090858;28;19954;-75
2022/06/04 10:41:30;;;;;;;;;;;29.10;65.70;;;;;;5092518;28;20304;-74
2022/06/04 10:44:04;;;;;;;;;;;28.30;67.80;;;;;;5092327;28;19916;-74
2022/06/04 10:46:47;;;;;;;;;;;27.30;69.30;;;;;;5092396;28;19916;-75
2022/06/04 10:49:25;;;;;;;;;;;27.20;69.30;;;;;;5090835;28;19957;-75
2022/06/04 10:51:55;;;;;;;;;;;27.70;69.20;;;;;;5091958;28;20385;-74
2022/06/04 10:54:25;;;;;;;;;;;27.90;67.90;;;;;;5092247;28;20279;-75
2022/06/04 10:56:51;;;;;;;;;;;28.20;67.40;;;;;;5092045;28;20364;-75
2022/06/04 10:59:36;;;;;;;;;;;28.50;67.10;;;;;;5092007;28;19912;-74
2022/06/04 11:02:14;;;;;;;;;;;28.70;66.60;;;;;;5092334;28;20249;-74
2022/06/04 11:04:46;;;;;;;;;;;28.70;65.90;;;;;;5091629;28;19961;-74
2022/06/04 11:07:11;;;;;;;;;;;28.90;66.60;;;;;;5091497;28;19971;-75
2022/06/04 11:09:39;;;;;;;;;;;29.10;67.50;;;;;;5090360;28;19962;-75
2022/06/04 11:12:25;;;;;;;;;;;29.20;66.70;;;;;;5091879;28;19912;-75
2022/06/04 11:14:55;;;;;;;;;;;29.20;65.90;;;;;;5080927;28;20387;-75
2022/06/04 11:17:24;;;;;;;;;;;28.60;67.00;;;;;;5091521;28;19998;-75
2022/06/04 11:20:00;;;;;;;;;;;28.10;69.10;;;;;;5090183;28;19916;-74
2022/06/04 11:22:25;;;;;;;;;;;27.40;67.10;;;;;;5091437;28;19917;-74
2022/06/04 11:25:15;;;;;;;;;;;26.80;68.10;;;;;;5091142;28;19920;-74
2022/06/04 11:27:45;;;;;;;;;;;26.00;69.50;;;;;;5091380;28;19927;-74
2022/06/04 11:30:15;;;;;;;;;;;25.30;70.60;;;;;;5090086;28;19909;-74
2022/06/04 11:32:47;;;;;;;;;;;24.80;72.30;;;;;;5091643;28;20324;-74
2022/06/04 11:35:23;;;;;;;;;;;24.60;72.50;;;;;;5091608;28;19909;-74
2022/06/04 11:37:52;;;;;;;;;;;24.60;74.10;;;;;;5091361;28;19928;-74
2022/06/04 11:40:20;;;;;;;;;;;24.90;73.70;;;;;;5091596;28;20267;-74
2022/06/04 11:42:58;;;;;;;;;;;25.30;72.40;;;;;;5091571;28;20375;-75
2022/06/04 11:45:29;;;;;;;;;;;25.50;72.00;;;;;;5093708;28;20532;-75
2022/06/04 11:47:55;;;;;;;;;;;25.70;72.30;;;;;;5095319;28;20333;-74
2022/06/04 11:50:32;;;;;;;;;;;25.70;72.80;;;;;;5095598;28;19908;-75
2022/06/04 11:53:10;;;;;;;;;;;25.50;74.10;;;;;;5095467;28;19963;-74
2022/06/04 11:55:57;;;;;;;;;;;25.50;72.00;;;;;;5095668;28;19912;-75
2022/06/04 11:58:42;;;;;;;;;;;25.70;71.60;;;;;;5095316;28;19917;-74
2022/06/04 12:01:10;;;;;;;;;;;26.10;69.40;;;;;;5095553;28;19912;-75
2022/06/04 12:03:38;;;;;;;;;;;26.20;68.90;;;;;;5095352;28;20421;-74
2022/06/04 12:06:13;;;;;;;;;;;26.30;69.50;;;;;;5095273;28;20304;-75
2022/06/04 12:08:41;;;;;;;;;;;26.30;69.50;;;;;;5094691;28;19916;-75
2022/06/04 12:11:06;;;;;;;;;;;26.10;68.80;;;;;;5095425;28;19915;-74
2022/06/04 12:13:58;;;;;;;;;;;26.30;71.10;;;;;;5095247;28;19916;-75
2022/06/04 12:16:26;;;;;;;;;;;26.50;68.20;;;;;;5091648;28;19908;-75
2022/06/04 12:19:04;;;;;;;;;;;25.90;67.60;;;;;;5094891;28;19920;-74
2022/06/04 12:24:20;;;;;;;;;;;25.70;69.40;;;;;;5094407;28;19970;-74
2022/06/04 12:26:48;;;;;;;;;;;25.60;69.30;;;;;;5094292;28;19966;-75
2022/06/04 12:29:29;;;;;;;;;;;25.60;71.10;;;;;;5094467;28;19944;-74
2022/06/04 12:32:02;;;;;;;;;;;25.60;71.30;;;;;;5094546;28;19916;-74
2022/06/04 12:34:38;;;;;;;;;;;25.70;72.40;;;;;;5094428;28;19914;-74
2022/06/04 12:37:05;;;;;;;;;;;25.70;73.00;;;;;;5094387;28;19969;-74
2022/06/04 12:39:35;;;;;;;;;;;25.70;72.20;;;;;;5094383;28;19908;-74
2022/06/04 12:42:10;;;;;;;;;;;25.60;70.30;;;;;;5093956;28;20346;-75
2022/06/04 12:44:36;;;;;;;;;;;25.30;71.30;;;;;;5094563;28;19915;-74
2022/06/04 12:47:19;;;;;;;;;;;25.10;70.20;;;;;;5094150;28;20374;-74
2022/06/04 12:49:48;;;;;;;;;;;25.30;73.00;;;;;;5094127;28;19951;-74
2022/06/04 12:52:26;;;;;;;;;;;25.00;71.40;;;;;;5093968;28;19916;-75
2022/06/04 12:54:54;;;;;;;;;;;24.90;70.90;;;;;;5092626;28;19908;-74
2022/06/04 12:57:40;;;;;;;;;;;24.80;71.00;;;;;;5091521;28;19934;-74
2022/06/04 13:00:18;;;;;;;;;;;24.60;72.80;;;;;;5094064;28;19952;-74
2022/06/04 13:03:12;;;;;;;;;;;24.60;71.90;;;;;;5094043;28;20283;-74
2022/06/04 13:05:54;;;;;;;;;;;24.60;74.70;;;;;;5092708;28;19915;-74
2022/06/04 13:08:20;;;;;;;;;;;24.60;74.20;;;;;;5093712;28;19930;-74
2022/06/04 13:10:45;;;;;;;;;;;24.70;72.60;;;;;;5093956;28;19999;-74
2022/06/04 13:13:12;;;;;;;;;;;24.70;73.90;;;;;;5093864;28;20373;-75
2022/06/04 13:15:53;;;;;;;;;;;24.70;73.90;;;;;;5093820;28;20011;-74
2022/06/04 13:18:21;;;;;;;;;;;24.40;72.00;;;;;;5092088;28;19920;-74
2022/06/04 13:20:49;;;;;;;;;;;24.40;72.40;;;;;;5093971;28;19912;-74
2022/06/04 13:23:18;;;;;;;;;;;24.40;73.10;;;;;;5091797;28;19920;-74
2022/06/04 13:25:52;;;;;;;;;;;24.50;72.40;;;;;;5093665;28;19973;-74
2022/06/04 13:28:27;;;;;;;;;;;24.60;72.80;;;;;;5093616;28;19927;-74
2022/06/04 13:30:53;;;;;;;;;;;24.60;72.80;;;;;;5093536;28;20295;-74
2022/06/04 13:33:19;;;;;;;;;;;24.40;71.70;;;;;;5093056;28;19912;-73
2022/06/04 13:35:46;;;;;;;;;;;24.30;72.70;;;;;;5092010;28;19925;-74
2022/06/04 13:38:21;;;;;;;;;;;24.20;73.10;;;;;;5093026;28;20355;-74
2022/06/04 13:40:47;;;;;;;;;;;24.10;72.40;;;;;;5093428;28;19956;-74
2022/06/04 13:43:12;;;;;;;;;;;24.10;72.50;;;;;;5093088;28;19958;-74
2022/06/04 13:45:39;;;;;;;;;;;24.10;72.10;;;;;;5093539;28;19915;-75
2022/06/04 13:48:21;;;;;;;;;;;24.00;72.10;;;;;;5093472;28;19916;-74
2022/06/04 13:50:48;;;;;;;;;;;24.00;72.90;;;;;;5093576;28;20279;-74
2022/06/04 13:53:16;;;;;;;;;;;24.10;72.90;;;;;;5091787;28;19916;-74
2022/06/04 13:56:01;;;;;;;;;;;24.20;73.50;;;;;;5093274;28;19962;-74
2022/06/04 13:58:42;;;;;;;;;;;24.30;75.60;;;;;;5092247;28;19938;-74
2022/06/04 14:01:07;;;;;;;;;;;24.40;75.20;;;;;;5093457;28;19913;-75
2022/06/04 14:03:34;;;;;;;;;;;24.40;74.20;;;;;;5092764;28;20330;-74
2022/06/04 14:06:00;;;;;;;;;;;24.30;73.80;;;;;;5093189;28;19929;-75
2022/06/04 14:08:26;;;;;;;;;;;24.30;73.40;;;;;;5092780;28;20295;-75
2022/06/04 14:11:01;;;;;;;;;;;24.30;73.00;;;;;;5093108;28;20261;-75
2022/06/04 14:13:36;;;;;;;;;;;24.30;73.20;;;;;;5091428;28;19916;-73
2022/06/04 14:16:12;;;;;;;;;;;24.10;73.60;;;;;;5092409;28;19916;-74
2022/06/04 14:18:46;;;;;;;;;;;24.10;73.50;;;;;;5092636;28;19913;-74
2022/06/04 14:21:30;;;;;;;;;;;23.80;73.90;;;;;;5092908;28;20325;-74
2022/06/04 14:24:05;;;;;;;;;;;23.70;74.00;;;;;;5092519;28;19932;-74
2022/06/04 14:26:42;;;;;;;;;;;23.60;75.10;;;;;;5091120;28;19928;-74
2022/06/04 14:29:28;;;;;;;;;;;23.60;75.00;;;;;;5092392;28;19916;-75
2022/06/04 14:31:59;;;;;;;;;;;23.50;74.40;;;;;;5081686;28;19912;-74
2022/06/04 14:34:34;;;;;;;;;;;23.50;74.30;;;;;;5092354;28;20283;-74
2022/06/04 14:37:00;;;;;;;;;;;23.40;73.70;;;;;;5092339;28;19916;-74
2022/06/04 14:39:26;;;;;;;;;;;23.30;74.00;;;;;;5090840;28;19915;-74
2022/06/04 14:41:58;;;;;;;;;;;23.30;74.80;;;;;;5092240;28;19958;-74
2022/06/04 14:44:29;;;;;;;;;;;23.30;75.10;;;;;;5092119;28;19912;-74